createdAt,value
2022-08-22T00:00:17.936Z,6.10
2022-08-22T00:02:43.290Z,2.90
2022-08-22T00:02:49.265Z,2.20
2022-08-22T00:05:56.388Z,5.90
2022-08-22T00:11:18.634Z,7.90
2022-08-22T00:16:34.055Z,8.90
2022-08-22T00:21:49.986Z,7.30
2022-08-22T00:27:17.954Z,8.40
2022-08-22T00:32:35.551Z,10.70
2022-08-22T00:37:46.291Z,13.00
2022-08-22T00:43:08.537Z,10.20
2022-08-22T00:48:33.603Z,10.40
2022-08-22T00:54:06.801Z,11.90
2022-08-22T00:59:45.989Z,14.20
2022-08-22T01:05:00.134Z,13.50
2022-08-22T01:10:24.043Z,12.40
2022-08-22T01:15:30.617Z,13.50
2022-08-22T01:21:11.110Z,13.20
2022-08-22T01:26:22.511Z,12.30
2022-08-22T01:32:05.649Z,13.10
2022-08-22T01:37:33.201Z,13.50
2022-08-22T01:43:00.908Z,16.10
2022-08-22T01:48:14.425Z,17.60
2022-08-22T01:53:36.721Z,15.10
2022-08-22T01:58:59.835Z,18.10
2022-08-22T02:04:10.711Z,19.20
2022-08-22T02:09:40.622Z,18.40
2022-08-22T02:15:05.914Z,14.70
2022-08-22T02:20:24.511Z,18.10
2022-08-22T02:25:33.340Z,17.10
2022-08-22T02:30:55.133Z,15.20
2022-08-22T02:36:04.798Z,16.30
2022-08-22T02:41:19.086Z,17.20
2022-08-22T02:46:30.419Z,20.60
2022-08-22T02:51:46.526Z,19.90
2022-08-22T02:56:57.786Z,20.30
2022-08-22T03:02:28.144Z,19.60
2022-08-22T03:07:39.684Z,22.20
2022-08-22T03:12:45.270Z,21.30
2022-08-22T03:18:00.818Z,19.60
2022-08-22T03:23:17.426Z,21.20
2022-08-22T03:28:27.047Z,21.50
2022-08-22T03:33:31.843Z,19.70
2022-08-22T03:38:34.624Z,20.20
2022-08-22T03:44:08.833Z,17.10
2022-08-22T03:49:32.950Z,30.30
2022-08-22T03:55:26.708Z,27.30
2022-08-22T04:00:37.602Z,21.80
2022-08-22T04:05:59.170Z,17.80
2022-08-22T04:11:21.640Z,19.50
2022-08-22T04:16:51.933Z,21.90
2022-08-22T04:21:54.926Z,16.80
2022-08-22T04:27:16.008Z,15.60
2022-08-22T04:32:36.826Z,16.20
2022-08-22T04:37:51.864Z,18.10
2022-08-22T04:43:06.259Z,14.90
2022-08-22T04:48:33.787Z,18.50
2022-08-22T04:53:48.795Z,11.00
2022-08-22T04:59:02.978Z,15.80
2022-08-22T05:04:10.719Z,14.90
2022-08-22T05:09:22.431Z,13.20
2022-08-22T05:14:34.211Z,15.30
2022-08-22T05:19:43.091Z,13.10
2022-08-22T05:24:49.865Z,16.90
2022-08-22T05:30:01.048Z,13.70
2022-08-22T05:35:08.771Z,13.50
2022-08-22T05:40:20.511Z,12.40
2022-08-22T05:45:26.534Z,11.80
2022-08-22T05:50:35.971Z,15.50
2022-08-22T05:55:39.041Z,14.70
2022-08-22T06:00:45.286Z,16.60
2022-08-22T06:05:53.487Z,15.90
2022-08-22T06:11:03.405Z,14.80
2022-08-22T06:16:12.349Z,11.30
2022-08-22T06:21:33.692Z,16.00
2022-08-22T06:26:48.890Z,14.10
2022-08-22T06:31:52.304Z,22.40
2022-08-22T06:36:57.634Z,17.20
2022-08-22T06:47:26.422Z,15.00
2022-08-22T06:52:33.256Z,15.60
2022-08-22T06:57:43.909Z,17.10
2022-08-22T07:02:54.839Z,13.40
2022-08-22T07:07:58.084Z,15.50
2022-08-22T07:13:01.698Z,13.90
2022-08-22T07:18:27.675Z,12.90
2022-08-22T07:23:46.016Z,15.30
2022-08-22T07:28:58.523Z,25.80
2022-08-22T07:34:38.190Z,14.30
2022-08-22T07:39:58.139Z,15.60
2022-08-22T07:45:20.812Z,15.30
2022-08-22T07:50:29.193Z,15.80
2022-08-22T07:55:32.501Z,20.30
2022-08-22T08:00:43.453Z,21.30
2022-08-22T08:05:46.650Z,16.70
2022-08-22T08:10:52.721Z,18.00
2022-08-22T08:15:56.186Z,22.60
2022-08-22T08:21:04.939Z,16.60
2022-08-22T08:26:16.111Z,17.20
2022-08-22T08:31:38.171Z,18.20
2022-08-22T08:37:04.775Z,16.20
2022-08-22T08:42:22.393Z,17.90
2022-08-22T08:48:14.671Z,21.00
2022-08-22T08:53:27.181Z,17.70
2022-08-22T08:58:35.566Z,18.50
2022-08-22T09:04:02.773Z,21.30
2022-08-22T09:14:50.571Z,22.90
2022-08-22T09:19:56.318Z,24.90
2022-08-22T09:25:19.227Z,22.70
2022-08-22T09:30:55.438Z,28.40
2022-08-22T09:36:07.337Z,26.20
2022-08-22T09:41:33.932Z,18.20
2022-08-22T09:46:56.976Z,21.20
2022-08-22T09:52:15.111Z,24.00
2022-08-22T09:57:41.113Z,22.80
2022-08-22T10:02:49.654Z,22.10
2022-08-22T10:08:05.535Z,23.00
2022-08-22T10:13:40.654Z,20.10
2022-08-22T10:19:05.293Z,23.10
2022-08-22T10:24:43.838Z,24.10
2022-08-22T10:30:08.285Z,21.40
2022-08-22T10:35:33.700Z,20.50
2022-08-22T10:40:39.590Z,20.60
2022-08-22T10:45:51.774Z,21.00
2022-08-22T10:51:08.870Z,23.00
2022-08-22T10:56:21.673Z,21.50
2022-08-22T11:01:37.221Z,20.60
2022-08-22T11:06:47.981Z,16.50
2022-08-22T11:12:34.885Z,16.80
2022-08-22T11:18:02.942Z,17.90
2022-08-22T11:23:32.482Z,20.30
2022-08-22T11:28:41.223Z,20.50
2022-08-22T11:34:03.897Z,22.60
2022-08-22T11:39:43.267Z,22.50
2022-08-22T11:44:54.682Z,22.70
2022-08-22T11:50:42.463Z,23.30
2022-08-22T11:56:05.984Z,22.60
2022-08-22T12:01:17.331Z,20.80
2022-08-22T12:06:46.715Z,21.30
2022-08-22T12:12:01.900Z,23.10
2022-08-22T12:17:55.860Z,22.70
2022-08-22T12:23:40.742Z,20.10
2022-08-22T12:28:56.705Z,18.80
2022-08-22T12:34:31.575Z,16.20
2022-08-22T12:39:46.963Z,17.10
2022-08-22T12:45:21.782Z,14.80
2022-08-22T12:50:35.481Z,16.10
2022-08-22T12:55:55.156Z,19.50
2022-08-22T13:01:06.442Z,23.60
2022-08-22T13:06:37.974Z,21.70
2022-08-22T13:11:43.506Z,16.70
2022-08-22T13:16:52.132Z,25.20
2022-08-22T13:22:11.725Z,23.90
2022-08-22T13:27:20.472Z,18.10
2022-08-22T13:32:39.271Z,16.10
2022-08-22T13:37:50.252Z,22.10
2022-08-22T13:43:02.685Z,20.80
2022-08-22T13:48:12.060Z,24.40
2022-08-22T13:53:29.923Z,16.40
2022-08-22T13:58:45.442Z,20.20
2022-08-22T14:03:59.443Z,19.20
2022-08-22T14:09:29.432Z,16.30
2022-08-22T14:14:38.814Z,16.90
2022-08-22T14:19:58.774Z,20.20
2022-08-22T14:25:24.009Z,16.10
2022-08-22T14:30:54.354Z,20.60
2022-08-22T14:36:13.328Z,17.00
2022-08-22T14:41:52.621Z,18.40
2022-08-22T14:47:00.224Z,21.40
2022-08-22T14:52:10.305Z,21.00
2022-08-22T14:57:22.685Z,19.60
2022-08-22T15:02:29.862Z,21.20
2022-08-22T15:07:36.513Z,15.60
2022-08-22T15:12:48.734Z,20.90
2022-08-22T15:17:52.825Z,20.80
2022-08-22T15:23:03.669Z,14.40
2022-08-22T15:28:14.486Z,18.70
2022-08-22T15:33:29.379Z,16.30
2022-08-22T15:38:38.986Z,21.60
2022-08-22T15:43:49.352Z,18.20
2022-08-22T15:49:19.688Z,23.20
2022-08-22T15:54:46.953Z,18.00
2022-08-22T15:59:57.795Z,16.40
2022-08-22T16:05:09.657Z,17.70
2022-08-22T16:10:21.280Z,15.80
2022-08-22T16:15:56.318Z,15.90
2022-08-22T16:21:04.630Z,14.90
2022-08-22T16:26:09.590Z,14.40
2022-08-22T16:36:21.193Z,18.40
2022-08-22T16:41:34.771Z,18.10
2022-08-22T16:46:41.740Z,19.30
2022-08-22T16:52:26.250Z,23.00
2022-08-22T16:58:04.991Z,28.50
2022-08-22T17:03:27.523Z,23.60
2022-08-22T17:08:45.419Z,25.90
2022-08-22T17:14:09.715Z,25.70
2022-08-22T17:19:32.334Z,29.50
2022-08-22T17:24:46.752Z,31.10
2022-08-22T17:30:16.241Z,26.80
2022-08-22T17:35:44.324Z,29.30
2022-08-22T17:41:18.461Z,29.10
2022-08-22T17:46:36.418Z,28.70
2022-08-22T17:52:07.487Z,28.60
2022-08-22T17:57:38.118Z,30.40
2022-08-22T18:02:43.515Z,28.50
2022-08-22T18:07:55.213Z,33.50
2022-08-22T18:13:21.565Z,30.90
2022-08-22T18:18:35.182Z,33.50
2022-08-22T18:23:54.874Z,33.30
2022-08-22T18:29:01.030Z,36.80
2022-08-22T18:34:16.247Z,37.30
2022-08-22T18:49:30.800Z,38.20
2022-08-22T18:54:49.025Z,38.30
2022-08-22T19:00:00.929Z,39.20
2022-08-22T19:05:13.265Z,40.00
2022-08-22T19:10:34.535Z,46.00
2022-08-22T19:15:56.100Z,40.30
2022-08-22T19:21:45.015Z,42.00
2022-08-22T19:27:10.095Z,44.50
2022-08-22T19:32:44.770Z,47.90
2022-08-22T19:38:00.711Z,35.20
2022-08-22T19:43:18.665Z,30.30
2022-08-22T19:48:31.658Z,31.00
2022-08-22T19:53:42.300Z,19.40
2022-08-22T19:58:54.923Z,18.30
2022-08-22T20:04:10.038Z,22.40
2022-08-22T20:09:32.859Z,22.50
2022-08-22T20:14:40.212Z,17.80
2022-08-22T20:25:41.481Z,10.70
2022-08-22T20:30:47.033Z,7.80
2022-08-22T20:41:17.412Z,8.50
2022-08-22T20:46:53.497Z,7.50
2022-08-22T20:52:04.952Z,7.50
2022-08-22T20:57:19.397Z,5.20
2022-08-22T21:02:29.763Z,6.50
2022-08-22T21:07:42.537Z,5.30
2022-08-22T21:13:11.322Z,7.20
2022-08-22T21:18:36.844Z,6.20
2022-08-22T21:23:59.911Z,5.60
2022-08-22T21:29:05.985Z,6.20
2022-08-22T21:34:18.592Z,5.10
2022-08-22T21:39:25.728Z,7.30
2022-08-22T21:44:31.140Z,7.90
2022-08-22T21:49:34.202Z,8.10
2022-08-22T21:54:40.788Z,6.50
2022-08-22T21:59:51.968Z,5.70
2022-08-22T22:05:11.720Z,6.80
2022-08-22T22:10:19.418Z,5.90
2022-08-22T22:15:25.981Z,5.30
2022-08-22T22:20:28.973Z,8.50
2022-08-22T22:25:38.797Z,3.60
2022-08-22T22:30:45.626Z,4.70
2022-08-22T22:35:49.681Z,5.10
2022-08-22T22:40:53.392Z,5.50
2022-08-22T22:45:56.575Z,4.00
2022-08-22T22:50:59.614Z,7.50
2022-08-22T22:56:02.890Z,5.00
2022-08-22T23:01:18.654Z,3.40
2022-08-22T23:06:23.554Z,4.10
2022-08-22T23:11:29.888Z,5.40
2022-08-22T23:16:37.155Z,5.80
2022-08-22T23:21:41.655Z,3.80
2022-08-22T23:26:44.961Z,5.10
2022-08-22T23:31:55.899Z,5.30
2022-08-22T23:37:00.790Z,4.00
2022-08-22T23:42:07.382Z,3.00
2022-08-22T23:47:10.967Z,4.00
2022-08-22T23:52:14.195Z,4.20
2022-08-22T23:57:17.744Z,3.60
